Time;durP1;ratioP1;P1;durP2;ratioP2;P2;SDS_P1;SDS_P2;PMS_P1;PMS_P2;Temp;Humidity;BMP_temperature;BMP_pressure;BME280_temperature;BME280_humidity;BME280_pressure;Samples;Min_cycle;Max_cycle;Signal;HPM_P1;HPM_P2
2022/11/13 00:00:16;;;;;;;6.35;5.75;;;17.30;76.70;;;;;;5031967;28;20288;-69
2022/11/13 00:03:01;;;;;;;5.97;5.38;;;17.30;76.60;;;;;;5026105;28;20234;-67
2022/11/13 00:05:45;;;;;;;6.25;5.65;;;17.40;76.60;;;;;;5033138;28;20178;-69
2022/11/13 00:08:30;;;;;;;6.68;5.85;;;17.30;76.70;;;;;;5032890;28;20226;-69
2022/11/13 00:11:17;;;;;;;7.18;5.88;;;17.30;76.70;;;;;;5017965;28;20298;-69
2022/11/13 00:14:02;;;;;;;6.30;5.70;;;17.30;76.50;;;;;;5017619;28;20209;-69
2022/11/13 00:16:46;;;;;;;5.68;5.13;;;17.30;76.40;;;;;;5032782;28;20218;-69
2022/11/13 00:19:30;;;;;;;5.10;4.60;;;17.30;76.30;;;;;;5032785;28;20313;-70
2022/11/13 00:22:15;;;;;;;6.10;5.50;;;17.30;76.40;;;;;;5032593;28;20202;-69
2022/11/13 00:24:59;;;;;;;5.93;5.40;;;17.40;76.60;;;;;;5031454;28;20178;-69
2022/11/13 00:27:43;;;;;;;5.45;4.95;;;17.30;76.60;;;;;;5032665;28;20222;-69
2022/11/13 00:30:27;;;;;;;5.40;4.90;;;17.40;76.60;;;;;;5016868;28;20301;-69
2022/11/13 00:33:11;;;;;;;6.15;5.55;;;17.30;76.50;;;;;;5031600;28;20202;-68
2022/11/13 00:36:05;;;;;;;5.47;4.95;;;17.30;76.60;;;;;;5031501;28;20179;-69
2022/11/13 00:38:50;;;;;;;5.03;4.63;;;17.40;76.60;;;;;;5032631;28;20214;-69
2022/11/13 00:41:35;;;;;;;5.00;4.60;;;17.30;76.60;;;;;;5017307;28;20202;-68
2022/11/13 00:44:19;;;;;;;4.88;4.47;;;17.40;76.80;;;;;;5032186;28;20178;-69
2022/11/13 00:47:05;;;;;;;6.10;5.00;;;17.30;76.50;;;;;;5032350;28;20226;-69
2022/11/13 00:49:49;;;;;;;5.00;4.50;;;17.30;76.60;;;;;;5030620;28;20230;-69
2022/11/13 00:52:33;;;;;;;5.00;4.50;;;17.40;76.60;;;;;;5032256;28;20178;-68
2022/11/13 00:55:17;;;;;;;4.57;4.18;;;17.40;76.60;;;;;;5017102;28;20174;-69
2022/11/13 00:58:03;;;;;;;5.35;4.30;;;17.40;76.70;;;;;;5032341;28;20182;-69
2022/11/13 01:00:48;;;;;;;4.72;4.22;;;17.40;76.70;;;;;;5031101;28;20624;-70
2022/11/13 01:03:33;;;;;;;4.47;4.07;;;17.40;76.80;;;;;;5017173;28;20233;-69
2022/11/13 01:06:23;;;;;;;4.28;3.88;;;17.40;76.60;;;;;;5032139;28;20701;-69
2022/11/13 01:09:08;;;;;;;4.63;4.22;;;17.30;76.50;;;;;;5017097;28;20237;-69
2022/11/13 01:11:52;;;;;;;4.68;4.20;;;17.30;76.60;;;;;;5045147;28;20178;-69
2022/11/13 01:14:36;;;;;;;4.50;4.10;;;17.40;76.80;;;;;;5016919;28;20183;-69
2022/11/13 01:17:21;;;;;;;3.90;3.45;;;17.40;76.70;;;;;;5032004;28;20174;-69
2022/11/13 01:20:06;;;;;;;4.43;3.90;;;17.40;76.60;;;;;;5031793;28;20224;-69
2022/11/13 01:22:50;;;;;;;3.90;3.50;;;17.40;76.60;;;;;;5017090;28;20242;-69
2022/11/13 01:25:35;;;;;;;4.10;3.70;;;17.30;76.40;;;;;;5016931;28;20181;-69
2022/11/13 01:28:19;;;;;;;4.00;3.63;;;17.40;76.60;;;;;;5031947;28;20189;-69
2022/11/13 01:31:10;;;;;;;3.42;3.10;;;17.30;76.60;;;;;;5016787;28;20222;-69
2022/11/13 01:33:55;;;;;;;4.07;3.67;;;17.30;76.50;;;;;;5031781;28;20255;-69
2022/11/13 01:36:40;;;;;;;3.80;3.50;;;17.40;76.50;;;;;;5030901;28;20175;-69
2022/11/13 01:39:24;;;;;;;3.88;3.55;;;17.40;76.50;;;;;;5031761;28;20298;-69
2022/11/13 01:42:08;;;;;;;4.30;3.67;;;17.30;76.50;;;;;;5016903;28;20230;-70
2022/11/13 01:44:58;;;;;;;3.40;3.10;;;17.40;76.60;;;;;;5016702;28;20253;-69
2022/11/13 01:47:43;;;;;;;3.50;3.20;;;17.40;76.50;;;;;;4997188;28;20183;-69
2022/11/13 01:50:27;;;;;;;4.05;3.67;;;17.40;76.50;;;;;;4997188;28;20266;-69
2022/11/13 01:53:12;;;;;;;3.30;3.00;;;17.40;76.40;;;;;;4997141;28;20238;-69
2022/11/13 01:55:56;;;;;;;3.28;2.97;;;17.40;76.40;;;;;;5011125;28;20211;-69
2022/11/13 01:58:56;;;;;;;3.53;3.22;;;17.40;76.60;;;;;;5000985;28;20292;-70
2022/11/13 02:01:40;;;;;;;3.55;3.25;;;17.40;76.60;;;;;;5032186;28;20275;-69
2022/11/13 02:04:26;;;;;;;3.25;2.95;;;17.40;76.50;;;;;;5035133;28;20182;-68
2022/11/13 02:07:14;;;;;;;3.50;3.20;;;17.30;76.10;;;;;;5035126;28;20225;-69
2022/11/13 02:10:00;;;;;;;3.20;2.90;;;17.40;76.00;;;;;;5034702;28;20273;-69
2022/11/13 02:12:49;;;;;;;3.42;3.13;;;17.40;76.40;;;;;;5035032;28;20230;-69
2022/11/13 02:15:34;;;;;;;3.58;3.25;;;17.40;76.50;;;;;;5019941;28;20174;-70
2022/11/13 02:18:21;;;;;;;3.05;2.75;;;17.40;76.40;;;;;;5034813;28;20183;-69
2022/11/13 02:21:14;;;;;;;3.45;3.15;;;17.40;76.20;;;;;;5078406;23;20249;-68
2022/11/13 02:24:36;;;;;;;3.60;3.08;;;17.40;76.00;;;;;;5047730;28;20187;-66
2022/11/13 02:27:37;;;;;;;3.03;2.80;;;17.30;76.30;;;;;;5034750;28;20214;-68
2022/11/13 02:30:29;;;;;;;3.03;2.83;;;17.40;76.40;;;;;;5036375;28;20275;-68
2022/11/13 02:33:27;;;;;;;3.17;2.88;;;17.40;76.20;;;;;;5047910;28;20179;-68
2022/11/13 02:36:12;;;;;;;2.90;2.65;;;17.40;76.20;;;;;;5047703;28;20287;-68
2022/11/13 02:39:01;;;;;;;3.22;2.92;;;17.40;76.30;;;;;;5034398;28;20209;-68
2022/11/13 02:41:46;;;;;;;4.13;3.13;;;17.40;76.30;;;;;;5047476;28;20238;-68
2022/11/13 02:44:30;;;;;;;2.97;2.72;;;17.40;76.00;;;;;;5047222;28;20654;-68
2022/11/13 02:47:15;;;;;;;2.60;2.40;;;17.40;76.00;;;;;;5047776;28;20225;-68
2022/11/13 02:49:59;;;;;;;3.50;3.20;;;17.40;76.20;;;;;;5052701;28;20225;-68
2022/11/13 02:52:43;;;;;;;3.60;2.70;;;17.40;76.30;;;;;;5052871;28;20317;-68
2022/11/13 02:55:28;;;;;;;3.30;3.00;;;17.40;76.10;;;;;;5052940;28;20198;-69
2022/11/13 02:58:12;;;;;;;3.28;3.00;;;17.40;76.00;;;;;;5054360;28;20692;-67
2022/11/13 03:00:59;;;;;;;2.90;2.70;;;17.40;76.00;;;;;;5052956;28;20225;-68
2022/11/13 03:03:43;;;;;;;2.90;2.70;;;17.40;76.00;;;;;;5052811;28;20566;-67
2022/11/13 03:06:28;;;;;;;2.78;2.58;;;17.40;76.00;;;;;;5053310;28;20256;-68
2022/11/13 03:09:12;;;;;;;3.10;2.90;;;17.40;76.20;;;;;;5052866;28;20181;-68
2022/11/13 03:11:56;;;;;;;2.60;2.40;;;17.40;76.00;;;;;;5052398;28;20273;-67
2022/11/13 03:14:41;;;;;;;2.80;2.60;;;17.40;76.00;;;;;;5052617;28;20197;-67
2022/11/13 03:17:25;;;;;;;2.75;2.55;;;17.40;76.00;;;;;;5052832;28;20229;-67
2022/11/13 03:20:10;;;;;;;3.30;3.10;;;17.40;76.00;;;;;;5053678;28;20229;-68
2022/11/13 03:22:54;;;;;;;2.72;2.53;;;17.40;76.00;;;;;;5052548;28;20268;-68
2022/11/13 03:25:39;;;;;;;2.65;2.45;;;17.40;76.00;;;;;;5053409;28;20213;-68
2022/11/13 03:28:23;;;;;;;2.90;2.65;;;17.40;76.00;;;;;;5052743;28;20681;-68
2022/11/13 03:31:08;;;;;;;2.38;2.17;;;17.40;76.00;;;;;;5051116;28;20221;-66
2022/11/13 03:33:53;;;;;;;3.05;2.80;;;17.40;76.00;;;;;;5052396;28;20190;-68
2022/11/13 03:36:37;;;;;;;2.70;2.50;;;17.40;76.00;;;;;;5044709;28;20211;-66
2022/11/13 03:39:21;;;;;;;2.50;2.30;;;17.40;76.00;;;;;;5052081;28;20272;-69
2022/11/13 03:42:06;;;;;;;2.65;2.45;;;17.30;75.90;;;;;;5038796;28;20194;-68
2022/11/13 03:44:50;;;;;;;2.63;2.42;;;17.40;76.00;;;;;;5051734;28;20209;-68
2022/11/13 03:47:35;;;;;;;2.58;2.38;;;17.40;75.90;;;;;;5052599;28;20236;-68
2022/11/13 03:50:19;;;;;;;2.33;2.13;;;17.40;76.00;;;;;;5046243;28;20275;-68
2022/11/13 03:53:04;;;;;;;2.35;2.15;;;17.40;76.00;;;;;;5053046;28;20181;-67
2022/11/13 03:55:48;;;;;;;2.50;2.30;;;17.40;76.00;;;;;;5052048;28;20181;-68
2022/11/13 03:58:33;;;;;;;2.45;2.25;;;17.30;75.90;;;;;;5051860;28;20202;-67
2022/11/13 04:01:17;;;;;;;2.55;2.35;;;17.40;75.80;;;;;;5073986;28;20225;-68
2022/11/13 04:04:02;;;;;;;2.60;2.40;;;17.30;75.70;;;;;;5051730;28;20193;-66
2022/11/13 04:06:46;;;;;;;2.00;1.90;;;17.30;75.50;;;;;;5052732;28;20181;-68
2022/11/13 04:09:30;;;;;;;2.70;2.50;;;17.30;75.80;;;;;;5051640;28;20217;-68
2022/11/13 04:12:14;;;;;;;2.67;2.47;;;17.40;75.90;;;;;;5051641;28;20182;-67
2022/11/13 04:14:58;;;;;;;2.30;2.10;;;17.40;76.00;;;;;;5051439;28;20258;-68
2022/11/13 04:17:43;;;;;;;2.25;2.08;;;17.40;75.70;;;;;;5052731;28;20725;-68
2022/11/13 04:20:29;;;;;;;2.30;2.10;;;17.40;75.70;;;;;;5051566;28;20225;-67
2022/11/13 04:23:14;;;;;;;2.45;2.25;;;17.40;75.60;;;;;;5052432;28;20641;-68
2022/11/13 04:25:59;;;;;;;2.40;2.20;;;17.40;75.70;;;;;;5051240;28;20182;-67
2022/11/13 04:28:43;;;;;;;2.60;2.40;;;17.40;75.80;;;;;;5052382;28;20208;-68
2022/11/13 04:31:27;;;;;;;2.53;2.33;;;17.40;75.50;;;;;;5052197;28;20216;-68
2022/11/13 04:34:12;;;;;;;2.40;2.20;;;17.40;75.50;;;;;;5052121;28;20180;-68
2022/11/13 04:36:56;;;;;;;2.25;1.92;;;17.40;75.40;;;;;;5052255;28;20174;-67
2022/11/13 04:39:41;;;;;;;2.35;2.15;;;17.40;75.50;;;;;;5052485;28;20224;-66
2022/11/13 04:45:28;;;;;;;2.50;2.28;;;17.30;75.30;;;;;;5051904;28;20186;-68
2022/11/13 04:48:12;;;;;;;2.67;2.47;;;17.40;75.20;;;;;;5051458;28;20502;-69
2022/11/13 04:50:57;;;;;;;2.00;1.90;;;17.40;75.00;;;;;;5051941;28;20264;-68
2022/11/13 04:53:41;;;;;;;2.75;2.55;;;17.40;75.30;;;;;;5051407;28;20186;-68
2022/11/13 04:56:26;;;;;;;2.28;2.08;;;17.40;75.20;;;;;;5050972;28;20208;-68
2022/11/13 04:59:10;;;;;;;2.30;2.10;;;17.40;75.10;;;;;;5050953;28;20228;-67
2022/11/13 05:01:55;;;;;;;2.53;2.33;;;17.40;75.00;;;;;;5051182;28;20225;-68
2022/11/13 05:04:39;;;;;;;2.40;2.20;;;17.40;74.90;;;;;;5051792;28;20185;-68
2022/11/13 05:07:28;;;;;;;2.88;2.25;;;17.40;74.50;;;;;;5051196;28;20181;-68
2022/11/13 05:10:12;;;;;;;2.30;2.17;;;17.40;75.70;;;;;;5050783;28;20340;-68
2022/11/13 05:12:56;;;;;;;2.50;2.30;;;17.40;75.10;;;;;;5051923;28;20193;-68
2022/11/13 05:15:41;;;;;;;2.45;2.25;;;17.30;74.90;;;;;;5050679;28;20182;-68
2022/11/13 05:18:25;;;;;;;2.10;2.00;;;17.40;74.80;;;;;;5051819;28;20182;-68
2022/11/13 05:21:10;;;;;;;2.17;2.08;;;17.30;74.20;;;;;;5051749;28;20232;-68
2022/11/13 05:23:54;;;;;;;2.33;2.13;;;17.40;74.60;;;;;;5050676;28;20185;-68
2022/11/13 05:26:39;;;;;;;2.22;2.10;;;17.40;74.80;;;;;;5051703;28;20201;-67
2022/11/13 05:29:23;;;;;;;2.45;2.25;;;17.40;74.90;;;;;;5050633;28;20252;-68
2022/11/13 05:32:07;;;;;;;2.13;1.92;;;17.40;74.60;;;;;;5051618;28;20186;-67
2022/11/13 05:34:52;;;;;;;2.17;2.08;;;17.40;74.30;;;;;;5051701;28;20604;-68
2022/11/13 05:37:36;;;;;;;1.88;1.77;;;17.40;74.30;;;;;;5054604;28;20208;-68
2022/11/13 05:40:21;;;;;;;2.13;1.95;;;17.40;74.30;;;;;;5055564;28;20302;-68
2022/11/13 05:43:05;;;;;;;2.03;1.88;;;17.40;74.50;;;;;;5054589;28;20216;-68
2022/11/13 05:45:50;;;;;;;2.25;2.05;;;17.40;74.50;;;;;;5054685;28;20181;-68
2022/11/13 05:48:35;;;;;;;2.50;2.30;;;17.40;74.10;;;;;;5054482;28;20186;-68
2022/11/13 05:51:24;;;;;;;2.15;1.95;;;17.30;73.90;;;;;;5054708;28;20225;-68
2022/11/13 05:54:09;;;;;;;2.03;1.90;;;17.40;74.00;;;;;;5055110;28;20181;-68
2022/11/13 05:56:53;;;;;;;2.45;2.25;;;17.40;74.30;;;;;;5068535;28;20181;-68
2022/11/13 05:59:38;;;;;;;2.33;2.13;;;17.40;74.30;;;;;;5053972;28;20233;-68
2022/11/13 06:02:22;;;;;;;2.50;2.30;;;17.40;74.30;;;;;;5054121;28;20193;-68
2022/11/13 06:05:07;;;;;;;2.17;2.03;;;17.40;74.20;;;;;;5055004;28;20182;-67
2022/11/13 06:07:51;;;;;;;1.77;1.67;;;17.40;74.00;;;;;;5055095;28;20178;-68
2022/11/13 06:10:36;;;;;;;2.20;2.00;;;17.40;74.10;;;;;;5055036;28;20311;-68
2022/11/13 06:13:20;;;;;;;1.85;1.75;;;17.30;74.10;;;;;;5055218;28;20649;-66
2022/11/13 06:16:14;;;;;;;1.92;1.83;;;17.40;74.00;;;;;;5054042;28;20178;-68
2022/11/13 06:19:01;;;;;;;1.90;1.80;;;17.40;74.10;;;;;;5054764;28;20205;-67
2022/11/13 06:21:45;;;;;;;1.90;1.80;;;17.40;74.10;;;;;;5053786;28;20217;-67
2022/11/13 06:24:29;;;;;;;2.58;1.90;;;17.40;73.70;;;;;;5054519;28;20196;-68
2022/11/13 06:27:13;;;;;;;2.28;2.10;;;17.40;74.00;;;;;;5054860;28;20272;-68
2022/11/13 06:29:57;;;;;;;1.98;1.88;;;17.40;74.00;;;;;;5045235;28;20295;-68
2022/11/13 06:32:41;;;;;;;2.10;1.95;;;17.40;74.00;;;;;;5053763;28;20240;-68
2022/11/13 06:35:26;;;;;;;2.40;2.20;;;17.40;74.00;;;;;;5054555;28;20217;-68
2022/11/13 06:38:10;;;;;;;2.38;2.17;;;17.40;73.90;;;;;;5053511;28;20252;-67
2022/11/13 06:40:56;;;;;;;2.08;1.88;;;17.40;74.00;;;;;;5054324;28;20240;-67
2022/11/13 06:43:42;;;;;;;2.28;2.00;;;17.40;74.00;;;;;;5054432;28;20181;-68
2022/11/13 06:46:28;;;;;;;2.33;2.13;;;17.30;74.00;;;;;;5052986;28;20261;-68
2022/11/13 06:49:12;;;;;;;2.13;2.03;;;17.40;74.00;;;;;;5053191;28;20238;-68
2022/11/13 06:51:56;;;;;;;2.13;1.92;;;17.40;73.80;;;;;;5054171;28;20236;-68
2022/11/13 06:54:41;;;;;;;2.72;2.53;;;17.40;73.80;;;;;;5053171;28;20193;-67
2022/11/13 06:57:26;;;;;;;2.15;2.05;;;17.40;73.80;;;;;;5053043;28;20177;-67
2022/11/13 07:00:11;;;;;;;2.28;2.08;;;17.40;74.00;;;;;;5052834;28;20249;-68
2022/11/13 07:02:56;;;;;;;2.35;2.15;;;17.30;73.90;;;;;;5053961;28;20197;-68
2022/11/13 07:05:40;;;;;;;2.30;2.10;;;17.30;73.70;;;;;;5053802;28;20185;-67
2022/11/13 07:08:25;;;;;;;2.42;2.22;;;17.40;73.80;;;;;;5053010;28;20257;-67
2022/11/13 07:11:12;;;;;;;2.63;2.42;;;17.40;73.80;;;;;;5052864;28;20225;-68
2022/11/13 07:13:56;;;;;;;2.22;2.05;;;17.40;74.00;;;;;;5052019;28;20208;-68
2022/11/13 07:16:40;;;;;;;2.03;1.90;;;17.40;74.70;;;;;;5053512;28;20625;-68
2022/11/13 07:19:24;;;;;;;2.40;2.20;;;17.40;73.90;;;;;;5052403;28;20220;-67
2022/11/13 07:22:08;;;;;;;2.10;1.90;;;17.40;74.00;;;;;;5052639;28;20182;-68
2022/11/13 07:24:53;;;;;;;2.05;1.95;;;17.40;73.70;;;;;;5052388;28;20299;-67
2022/11/13 07:27:37;;;;;;;2.35;2.15;;;17.40;74.00;;;;;;5052451;28;20182;-67
2022/11/13 07:30:22;;;;;;;1.85;1.75;;;17.30;73.90;;;;;;5043919;28;20237;-68
2022/11/13 07:33:06;;;;;;;2.45;2.25;;;17.30;73.90;;;;;;5033509;28;20178;-65
2022/11/13 07:35:56;;;;;;;2.20;2.00;;;17.30;73.90;;;;;;5033351;28;20175;-67
2022/11/13 07:38:40;;;;;;;2.35;2.15;;;17.40;73.70;;;;;;5033748;28;20225;-68
2022/11/13 07:41:24;;;;;;;2.40;2.20;;;17.40;73.70;;;;;;5033302;28;20704;-67
2022/11/13 07:44:09;;;;;;;2.67;2.47;;;17.40;74.00;;;;;;5033198;28;20202;-67
2022/11/13 07:46:53;;;;;;;2.10;2.00;;;17.40;74.00;;;;;;5060688;28;20333;-68
2022/11/13 07:49:38;;;;;;;2.40;2.20;;;17.30;73.90;;;;;;5033220;28;20277;-67
2022/11/13 07:52:22;;;;;;;2.58;2.38;;;17.30;73.60;;;;;;5033243;28;20226;-67
2022/11/13 07:55:07;;;;;;;2.55;2.10;;;17.40;73.60;;;;;;5046138;28;20178;-68
2022/11/13 07:57:58;;;;;;;1.88;1.77;;;17.30;73.70;;;;;;5046048;28;20194;-67
2022/11/13 08:00:42;;;;;;;2.33;2.13;;;17.40;73.80;;;;;;5043893;28;20612;-67
2022/11/13 08:03:27;;;;;;;2.53;2.33;;;17.40;73.90;;;;;;5051845;28;20197;-68
2022/11/13 08:06:11;;;;;;;2.15;1.95;;;17.40;73.90;;;;;;5052952;28;20181;-67
2022/11/13 08:08:56;;;;;;;2.65;2.25;;;17.40;73.80;;;;;;5051778;28;20713;-68
2022/11/13 08:11:40;;;;;;;2.03;1.92;;;17.40;73.50;;;;;;5051709;28;20208;-67
2022/11/13 08:14:24;;;;;;;2.45;2.25;;;17.40;73.70;;;;;;5051407;28;20189;-68
2022/11/13 08:17:08;;;;;;;2.38;2.17;;;17.40;73.80;;;;;;5051651;28;20209;-68
2022/11/13 08:22:26;;;;;;;2.35;2.15;;;17.40;73.70;;;;;;5030974;28;20210;-69
2022/11/13 08:25:10;;;;;;;2.70;2.50;;;17.40;73.60;;;;;;5017513;28;20226;-69
2022/11/13 08:27:56;;;;;;;2.20;2.00;;;17.40;73.50;;;;;;5017809;28;20244;-71
2022/11/13 08:30:43;;;;;;;1.98;1.88;;;17.40;73.50;;;;;;5032400;28;20725;-71
2022/11/13 08:33:28;;;;;;;2.45;2.25;;;17.40;73.60;;;;;;5031560;28;20225;-70
2022/11/13 08:36:12;;;;;;;2.47;2.28;;;17.40;73.60;;;;;;5032243;28;20217;-70
2022/11/13 08:38:56;;;;;;;2.35;2.20;;;17.40;73.50;;;;;;5031077;28;20198;-70
2022/11/13 08:41:41;;;;;;;2.70;2.50;;;17.40;73.40;;;;;;5021409;28;20226;-71
2022/11/13 08:44:25;;;;;;;2.42;2.22;;;17.40;73.20;;;;;;5032157;28;20274;-70
2022/11/13 08:47:10;;;;;;;2.40;2.20;;;17.40;73.20;;;;;;5032211;28;20267;-71
2022/11/13 08:49:55;;;;;;;2.00;1.90;;;17.40;73.30;;;;;;5032359;28;20264;-70
2022/11/13 08:52:40;;;;;;;2.50;2.30;;;17.50;73.40;;;;;;5032487;28;20198;-71
2022/11/13 08:55:26;;;;;;;2.40;2.20;;;17.50;73.20;;;;;;5043559;28;20193;-70
2022/11/13 08:58:10;;;;;;;2.22;2.03;;;17.50;73.10;;;;;;5052541;28;20292;-69
2022/11/13 09:01:00;;;;;;;2.33;2.13;;;17.50;73.00;;;;;;5030168;28;20249;-70
2022/11/13 09:03:47;;;;;;;2.40;2.20;;;17.50;72.70;;;;;;5032858;28;20191;-71
2022/11/13 09:06:32;;;;;;;2.47;2.20;;;17.50;72.90;;;;;;5032139;28;20190;-70
2022/11/13 09:09:21;;;;;;;2.50;2.30;;;17.50;72.80;;;;;;5031706;28;20181;-71
2022/11/13 09:12:06;;;;;;;2.40;2.20;;;17.50;72.80;;;;;;5035695;28;20246;-69
2022/11/13 09:14:50;;;;;;;2.63;2.42;;;17.50;72.40;;;;;;5035887;28;20198;-71
2022/11/13 09:17:35;;;;;;;2.00;1.90;;;17.60;72.50;;;;;;5035293;28;20174;-70
2022/11/13 09:20:18;;;;;;;2.42;2.10;;;17.60;72.30;;;;;;5035476;28;20599;-71
2022/11/13 09:23:06;;;;;;;2.05;1.95;;;17.50;72.50;;;;;;5035456;28;20701;-71
2022/11/13 09:25:51;;;;;;;2.47;2.28;;;17.60;72.30;;;;;;5036165;28;20205;-70
2022/11/13 09:28:36;;;;;;;2.53;2.33;;;17.60;72.40;;;;;;5036138;28;20206;-71
2022/11/13 09:31:20;;;;;;;2.08;1.98;;;17.60;72.30;;;;;;5024021;28;20250;-71
2022/11/13 09:34:04;;;;;;;2.50;2.33;;;17.60;72.10;;;;;;5015570;28;20557;-70
2022/11/13 09:36:49;;;;;;;2.30;2.10;;;17.60;72.00;;;;;;5015760;28;20176;-70
2022/11/13 09:39:33;;;;;;;2.25;2.05;;;17.60;72.20;;;;;;5015811;28;20176;-70
2022/11/13 09:42:27;;;;;;;2.03;1.90;;;17.60;72.20;;;;;;5015455;28;20215;-71
2022/11/13 09:45:14;;;;;;;2.30;2.15;;;17.60;72.20;;;;;;5039187;28;20200;-69
2022/11/13 09:48:24;;;;;;;3.53;2.47;;;17.60;72.10;;;;;;5046349;28;20194;-70
2022/11/13 09:51:20;;;;;;;2.10;2.00;;;17.60;72.10;;;;;;5039561;28;20237;-70
2022/11/13 09:54:10;;;;;;;2.13;1.92;;;17.60;71.90;;;;;;5044049;28;20217;-69
2022/11/13 09:57:20;;;;;;;2.35;2.15;;;17.60;72.10;;;;;;5038444;28;20173;-70
2022/11/13 10:00:12;;;;;;;2.25;2.05;;;17.60;71.70;;;;;;5038714;28;20246;-69
2022/11/13 10:03:30;;;;;;;2.33;2.13;;;17.60;72.10;;;;;;5053911;28;20209;-70
2022/11/13 10:06:37;;;;;;;2.67;2.47;;;17.60;72.10;;;;;;5051618;28;20213;-70
2022/11/13 10:09:28;;;;;;;2.20;2.00;;;17.60;71.70;;;;;;5042236;28;20193;-70
2022/11/13 10:12:14;;;;;;;2.40;2.20;;;17.60;72.10;;;;;;5030411;28;20254;-70
2022/11/13 10:15:04;;;;;;;2.10;1.92;;;17.60;72.00;;;;;;5025390;28;20679;-70
2022/11/13 10:18:00;;;;;;;2.40;2.20;;;17.60;72.00;;;;;;5035874;28;20186;-70
2022/11/13 10:20:56;;;;;;;2.53;2.33;;;17.60;71.80;;;;;;5034233;28;20229;-69
2022/11/13 10:23:49;;;;;;;2.03;1.88;;;17.60;72.00;;;;;;5047186;28;20218;-69
2022/11/13 10:26:34;;;;;;;2.67;2.47;;;17.60;72.10;;;;;;5038789;28;20256;-70
2022/11/13 10:29:19;;;;;;;2.60;2.40;;;17.60;72.10;;;;;;5048097;28;20325;-70
2022/11/13 10:32:31;;;;;;;2.67;2.47;;;17.60;72.50;;;;;;5014941;28;20207;-70
2022/11/13 10:35:27;;;;;;;3.40;2.58;;;17.60;71.80;;;;;;5024188;28;20260;-70
2022/11/13 10:38:31;;;;;;;2.88;2.67;;;17.60;72.00;;;;;;5014945;28;20306;-70
2022/11/13 10:41:19;;;;;;;2.65;2.45;;;17.60;72.00;;;;;;5015054;28;20618;-70
2022/11/13 10:44:32;;;;;;;2.70;2.50;;;17.60;72.00;;;;;;5013800;28;20291;-69
2022/11/13 10:47:21;;;;;;;2.50;2.30;;;17.60;72.00;;;;;;5014610;28;20275;-70
2022/11/13 10:50:24;;;;;;;2.72;2.53;;;17.60;72.20;;;;;;5045593;28;20277;-68
2022/11/13 10:53:17;;;;;;;2.65;2.42;;;17.60;72.10;;;;;;5034258;28;20202;-70
2022/11/13 10:56:28;;;;;;;2.85;2.65;;;17.60;72.00;;;;;;5032764;28;20194;-70
2022/11/13 10:59:15;;;;;;;2.80;2.42;;;17.60;72.10;;;;;;5026557;28;20230;-71
2022/11/13 11:02:16;;;;;;;3.03;2.75;;;17.60;72.20;;;;;;5033042;28;20245;-70
2022/11/13 11:05:23;;;;;;;2.97;2.70;;;17.60;72.10;;;;;;5033032;28;20185;-69
2022/11/13 11:08:09;;;;;;;2.67;2.47;;;17.60;72.20;;;;;;5033317;28;20272;-70
2022/11/13 11:14:29;;;;;;;2.78;2.58;;;17.60;72.20;;;;;;5034138;28;20175;-68
2022/11/13 11:17:18;;;;;;;2.60;2.38;;;17.60;72.00;;;;;;5034033;28;20171;-70
2022/11/13 11:20:21;;;;;;;2.80;2.60;;;17.70;72.40;;;;;;5033779;28;20249;-70
2022/11/13 11:23:22;;;;;;;2.63;2.42;;;17.60;72.30;;;;;;5033967;28;20689;-70
2022/11/13 11:26:34;;;;;;;2.75;2.50;;;17.70;72.20;;;;;;5032881;28;20202;-70
2022/11/13 11:29:38;;;;;;;2.78;2.58;;;17.60;72.00;;;;;;5033099;28;20214;-70
2022/11/13 11:33:02;;;;;;;2.70;2.50;;;17.70;72.40;;;;;;5031524;28;20221;-70
2022/11/13 11:36:10;;;;;;;3.03;2.83;;;17.60;72.10;;;;;;5029834;28;20202;-70
2022/11/13 11:39:25;;;;;;;2.75;2.55;;;17.70;72.20;;;;;;5032781;28;20179;-71
2022/11/13 11:43:01;;;;;;;3.00;2.80;;;17.70;72.10;;;;;;5032009;28;20249;-70
2022/11/13 11:45:47;;;;;;;2.72;2.50;;;17.70;72.50;;;;;;5032778;28;20229;-70
2022/11/13 11:48:33;;;;;;;3.35;2.72;;;17.70;72.70;;;;;;5032562;28;20262;-70
2022/11/13 11:51:36;;;;;;;3.15;2.85;;;17.60;72.50;;;;;;5032592;28;20225;-71
2022/11/13 11:54:42;;;;;;;2.58;2.38;;;17.70;72.30;;;;;;5032226;28;20256;-69
2022/11/13 11:58:05;;;;;;;3.00;2.80;;;17.70;72.60;;;;;;5012509;28;20183;-70
2022/11/13 12:01:01;;;;;;;2.85;2.65;;;17.70;72.70;;;;;;5031427;28;20215;-70
2022/11/13 12:04:24;;;;;;;2.90;2.70;;;17.70;73.00;;;;;;5031978;28;20249;-70
2022/11/13 12:07:27;;;;;;;3.20;2.90;;;17.70;72.70;;;;;;5032321;28;20178;-70
2022/11/13 12:10:25;;;;;;;2.80;2.60;;;17.70;72.80;;;;;;5031830;28;20301;-71
2022/11/13 12:13:25;;;;;;;2.92;2.70;;;17.70;72.40;;;;;;5032522;28;20218;-70
2022/11/13 12:16:36;;;;;;;3.05;2.78;;;17.70;72.80;;;;;;5031150;28;20191;-69
2022/11/13 12:19:49;;;;;;;3.55;2.75;;;17.70;72.70;;;;;;5032143;28;20697;-70
2022/11/13 12:22:42;;;;;;;2.70;2.50;;;17.70;72.70;;;;;;5031891;28;20209;-70
2022/11/13 12:25:40;;;;;;;2.85;2.65;;;17.70;72.80;;;;;;5031286;28;20226;-70
2022/11/13 12:28:37;;;;;;;3.03;2.83;;;17.70;72.80;;;;;;5031640;28;20241;-70
2022/11/13 12:31:46;;;;;;;3.28;2.97;;;17.70;72.60;;;;;;5021616;28;20226;-73
2022/11/13 12:34:52;;;;;;;2.63;2.42;;;17.70;72.70;;;;;;5033096;28;20218;-69
2022/11/13 12:37:41;;;;;;;3.80;2.95;;;17.70;72.80;;;;;;5027532;28;20190;-70
2022/11/13 12:40:35;;;;;;;3.08;2.80;;;17.70;72.80;;;;;;5031329;28;20233;-69
2022/11/13 12:43:58;;;;;;;3.90;2.85;;;17.70;72.80;;;;;;5024971;28;20194;-69
2022/11/13 12:46:44;;;;;;;3.10;2.80;;;17.60;72.70;;;;;;5028205;28;20210;-70
2022/11/13 12:49:34;;;;;;;2.90;2.70;;;17.70;72.90;;;;;;5020073;28;20230;-69
2022/11/13 12:52:23;;;;;;;3.10;2.90;;;17.70;72.70;;;;;;5025539;28;20286;-69
2022/11/13 12:55:28;;;;;;;3.00;2.70;;;17.70;72.70;;;;;;5032062;28;20241;-69
2022/11/13 12:58:24;;;;;;;3.78;2.97;;;17.70;73.00;;;;;;5032331;28;20217;-69
2022/11/13 13:01:09;;;;;;;3.40;3.10;;;17.70;73.00;;;;;;5019837;28;20218;-69
2022/11/13 13:04:26;;;;;;;2.97;2.78;;;17.60;72.70;;;;;;5018247;28;20206;-69
2022/11/13 13:07:29;;;;;;;3.10;2.90;;;17.70;72.80;;;;;;5017090;28;20269;-69
2022/11/13 13:10:32;;;;;;;3.30;2.97;;;17.70;73.00;;;;;;5031910;28;20213;-69
2022/11/13 13:13:39;;;;;;;2.80;2.55;;;17.70;73.00;;;;;;5032131;28;20174;-69
2022/11/13 13:16:28;;;;;;;3.47;2.80;;;17.70;73.10;;;;;;5031903;28;20600;-69
2022/11/13 13:19:29;;;;;;;3.30;2.80;;;17.70;73.20;;;;;;5031207;28;20227;-69
2022/11/13 13:22:33;;;;;;;3.10;2.90;;;17.70;73.10;;;;;;5031979;28;20277;-69
2022/11/13 13:25:30;;;;;;;3.47;2.72;;;17.70;72.80;;;;;;5012422;28;20322;-69
2022/11/13 13:28:23;;;;;;;3.00;2.70;;;17.70;72.90;;;;;;5011351;28;20183;-69
2022/11/13 13:31:36;;;;;;;3.20;2.90;;;17.70;73.10;;;;;;5011229;28;20282;-68
2022/11/13 13:34:39;;;;;;;3.00;2.80;;;17.70;73.10;;;;;;5011186;28;20203;-68
2022/11/13 13:38:00;;;;;;;2.80;2.60;;;17.70;73.00;;;;;;5012184;28;20225;-68
2022/11/13 13:41:11;;;;;;;3.20;2.95;;;17.70;73.10;;;;;;5011062;28;20239;-67
2022/11/13 13:44:30;;;;;;;3.40;3.10;;;17.70;73.20;;;;;;5011115;28;20226;-66
2022/11/13 13:47:34;;;;;;;3.10;2.80;;;17.70;73.30;;;;;;5030404;28;20237;-67
2022/11/13 13:50:24;;;;;;;3.20;2.78;;;17.70;73.20;;;;;;5030582;28;20254;-67
2022/11/13 13:53:15;;;;;;;2.70;2.50;;;17.70;73.10;;;;;;5031790;28;20210;-66
2022/11/13 13:56:03;;;;;;;3.17;2.65;;;17.70;73.20;;;;;;5031518;28;20690;-66
2022/11/13 13:58:48;;;;;;;3.85;2.80;;;17.70;73.40;;;;;;5034974;28;20226;-67
2022/11/13 14:01:33;;;;;;;3.20;2.78;;;17.70;73.40;;;;;;5034069;28;20424;-67
2022/11/13 14:04:21;;;;;;;3.00;2.80;;;17.70;73.40;;;;;;5028342;28;20317;-66
2022/11/13 14:07:29;;;;;;;3.08;2.78;;;17.70;73.40;;;;;;5033727;28;20199;-67
2022/11/13 14:10:23;;;;;;;3.50;3.17;;;17.70;73.40;;;;;;5033867;28;20293;-67
2022/11/13 14:13:13;;;;;;;3.00;2.67;;;17.70;73.40;;;;;;5034150;28;20182;-66
2022/11/13 14:16:06;;;;;;;3.30;2.78;;;17.70;73.40;;;;;;5034907;28;20175;-66
2022/11/13 14:18:50;;;;;;;3.13;2.83;;;17.70;73.40;;;;;;5034255;28;20183;-66
2022/11/13 14:21:35;;;;;;;3.15;2.88;;;17.70;73.40;;;;;;5042254;23;20305;-69
2022/11/13 14:24:32;;;;;;;3.10;2.85;;;17.70;73.50;;;;;;5019828;28;20214;-68
2022/11/13 14:27:23;;;;;;;3.67;2.90;;;17.70;73.50;;;;;;5034841;28;20271;-68
2022/11/13 14:30:27;;;;;;;3.28;2.97;;;17.70;73.40;;;;;;5019711;28;20194;-67
2022/11/13 14:33:25;;;;;;;4.20;3.38;;;17.70;73.40;;;;;;5034828;28;20202;-67
2022/11/13 14:36:12;;;;;;;3.45;3.15;;;17.70;73.60;;;;;;5019354;28;20182;-68
2022/11/13 14:38:58;;;;;;;3.00;2.70;;;17.70;73.60;;;;;;5019560;28;20266;-69
2022/11/13 14:41:53;;;;;;;3.88;3.33;;;17.70;73.70;;;;;;5033236;28;20310;-68
2022/11/13 14:44:37;;;;;;;3.63;3.03;;;17.70;73.40;;;;;;5034469;28;20182;-68
2022/11/13 14:47:27;;;;;;;3.35;2.63;;;17.70;73.70;;;;;;5033433;28;20201;-68
2022/11/13 14:50:23;;;;;;;3.22;2.92;;;17.70;73.70;;;;;;5006802;28;20221;-68
2022/11/13 14:53:10;;;;;;;3.67;3.08;;;17.70;73.80;;;;;;5019310;28;20203;-68